createdAt,value
2022-12-11T00:01:10.817Z,28.67
2022-12-11T00:03:39.175Z,27.90
2022-12-11T00:06:08.763Z,28.90
2022-12-11T00:08:37.682Z,27.00
2022-12-11T00:11:06.641Z,27.33
2022-12-11T00:13:36.079Z,25.40
2022-12-11T00:16:04.220Z,23.10
2022-12-11T00:18:32.461Z,22.20
2022-12-11T00:21:02.615Z,22.60
2022-12-11T00:23:30.966Z,22.40
2022-12-11T00:25:59.192Z,22.40
2022-12-11T00:28:27.270Z,23.30
2022-12-11T00:30:56.625Z,24.30
2022-12-11T00:33:24.644Z,24.03
2022-12-11T00:35:52.675Z,24.40
2022-12-11T00:38:22.549Z,23.63
2022-12-11T00:40:51.051Z,25.30
2022-12-11T00:43:19.198Z,24.90
2022-12-11T00:45:48.658Z,24.73
2022-12-11T00:48:18.063Z,25.33
2022-12-11T00:50:46.124Z,26.93
2022-12-11T00:53:14.238Z,25.87
2022-12-11T00:55:44.113Z,23.73
2022-12-11T00:58:13.030Z,22.37
2022-12-11T01:00:42.058Z,22.73
2022-12-11T01:03:10.684Z,22.07
2022-12-11T01:05:40.666Z,21.70
2022-12-11T01:08:09.062Z,22.43
2022-12-11T01:10:36.182Z,21.60
2022-12-11T01:13:06.729Z,25.47
2022-12-11T01:15:41.560Z,23.73
2022-12-11T01:18:10.424Z,22.90
2022-12-11T01:20:42.579Z,21.80
2022-12-11T01:23:12.941Z,24.90
2022-12-11T01:25:41.614Z,21.27
2022-12-11T01:28:10.582Z,22.07
2022-12-11T01:30:39.106Z,22.40
2022-12-11T01:33:07.088Z,20.37
2022-12-11T01:35:35.163Z,21.73
2022-12-11T01:38:04.618Z,22.07
2022-12-11T01:40:32.911Z,21.17
2022-12-11T01:43:00.932Z,20.43
2022-12-11T01:45:42.058Z,22.10
2022-12-11T01:48:13.495Z,21.13
2022-12-11T01:50:46.405Z,21.27
2022-12-11T01:53:21.050Z,22.47
2022-12-11T01:55:50.717Z,22.03
2022-12-11T01:58:19.897Z,23.27
2022-12-11T02:00:48.189Z,21.47
2022-12-11T02:03:16.532Z,21.27
2022-12-11T02:05:44.572Z,23.27
2022-12-11T02:08:13.158Z,21.93
2022-12-11T02:10:51.092Z,19.00
2022-12-11T02:13:24.596Z,21.43
2022-12-11T02:16:00.803Z,21.63
2022-12-11T02:18:36.043Z,21.63
2022-12-11T02:21:09.839Z,21.87
2022-12-11T02:23:59.496Z,21.80
2022-12-11T02:26:52.028Z,20.93
2022-12-11T02:29:27.005Z,18.57
2022-12-11T02:32:00.815Z,20.30
2022-12-11T02:34:36.180Z,18.57
2022-12-11T02:37:08.802Z,18.93
2022-12-11T02:39:39.907Z,18.63
2022-12-11T02:42:09.111Z,18.43
2022-12-11T02:44:40.181Z,19.97
2022-12-11T02:47:12.508Z,18.77
2022-12-11T02:49:43.064Z,20.13
2022-12-11T02:52:13.950Z,19.37
2022-12-11T02:54:44.973Z,17.17
2022-12-11T02:57:17.514Z,19.50
2022-12-11T02:59:47.943Z,17.63
2022-12-11T03:02:18.912Z,18.17
2022-12-11T03:04:47.799Z,18.13
2022-12-11T03:07:20.100Z,17.67
2022-12-11T03:09:49.460Z,17.63
2022-12-11T03:12:22.584Z,16.47
2022-12-11T03:14:52.353Z,16.93
2022-12-11T03:17:23.148Z,16.90
2022-12-11T03:19:57.990Z,16.40
2022-12-11T03:22:34.107Z,16.80
2022-12-11T03:25:05.425Z,14.80
2022-12-11T03:27:39.439Z,14.03
2022-12-11T03:30:13.018Z,13.63
2022-12-11T03:32:47.802Z,14.70
2022-12-11T03:35:22.114Z,15.47
2022-12-11T03:37:52.138Z,14.73
2022-12-11T03:40:22.994Z,14.57
2022-12-11T03:42:53.793Z,14.53
2022-12-11T03:45:25.980Z,14.97
2022-12-11T03:47:56.216Z,15.77
2022-12-11T03:50:25.648Z,14.83
2022-12-11T03:52:56.271Z,16.77
2022-12-11T03:55:25.229Z,16.37
2022-12-11T03:57:53.472Z,15.70
2022-12-11T04:00:24.253Z,15.40
2022-12-11T04:03:12.631Z,15.10
2022-12-11T04:05:41.355Z,14.57
2022-12-11T04:08:09.409Z,15.53
2022-12-11T04:10:37.510Z,15.47
2022-12-11T04:13:05.612Z,15.27
2022-12-11T04:15:34.257Z,15.70
2022-12-11T04:18:19.712Z,15.20
2022-12-11T04:21:05.544Z,15.77
2022-12-11T04:23:50.873Z,16.60
2022-12-11T04:26:21.087Z,14.00
2022-12-11T04:28:50.173Z,15.50
2022-12-11T04:31:21.604Z,14.33
2022-12-11T04:33:50.220Z,13.87
2022-12-11T04:36:18.755Z,15.17
2022-12-11T04:38:46.816Z,13.97
2022-12-11T04:41:16.648Z,15.30
2022-12-11T04:43:45.463Z,16.23
2022-12-11T04:46:15.495Z,15.10
2022-12-11T04:48:45.132Z,14.47
2022-12-11T04:51:13.575Z,16.87
2022-12-11T04:53:42.021Z,15.33
2022-12-11T04:56:12.222Z,15.47
2022-12-11T04:58:41.205Z,15.53
2022-12-11T05:01:10.037Z,16.73
2022-12-11T05:03:38.384Z,15.70
2022-12-11T05:06:09.172Z,15.90
2022-12-11T05:08:40.204Z,15.57
2022-12-11T05:11:10.863Z,15.80
2022-12-11T05:13:39.049Z,16.30
2022-12-11T05:16:08.673Z,16.50
2022-12-11T05:18:37.174Z,16.70
2022-12-11T05:21:08.816Z,16.30
2022-12-11T05:23:37.297Z,16.17
2022-12-11T05:26:08.341Z,16.37
2022-12-11T05:28:38.605Z,17.77
2022-12-11T05:31:09.324Z,17.20
2022-12-11T05:33:37.344Z,17.70
2022-12-11T05:36:07.675Z,17.10
2022-12-11T05:38:36.215Z,17.20
2022-12-11T05:41:06.088Z,18.20
2022-12-11T05:43:35.954Z,17.33
2022-12-11T05:46:11.403Z,18.20
2022-12-11T05:48:40.295Z,16.57
2022-12-11T05:51:10.117Z,17.87
2022-12-11T05:53:39.210Z,17.10
2022-12-11T05:56:09.360Z,16.87
2022-12-11T05:58:37.674Z,17.73
2022-12-11T06:01:09.132Z,18.43
2022-12-11T06:03:37.212Z,18.00
2022-12-11T06:06:06.142Z,17.10
2022-12-11T06:08:36.247Z,17.63
2022-12-11T06:11:05.241Z,17.40
2022-12-11T06:13:33.644Z,17.43
2022-12-11T06:16:03.532Z,17.13
2022-12-11T06:18:31.929Z,17.47
2022-12-11T06:20:59.977Z,16.37
2022-12-11T06:23:28.049Z,16.40
2022-12-11T06:25:57.490Z,18.03
2022-12-11T06:28:25.508Z,17.80
2022-12-11T06:30:53.550Z,17.37
2022-12-11T06:33:21.558Z,16.90
2022-12-11T06:35:49.556Z,17.20
2022-12-11T06:38:17.577Z,16.90
2022-12-11T06:40:45.700Z,17.20
2022-12-11T06:43:15.080Z,17.03
2022-12-11T06:45:43.147Z,16.10
2022-12-11T06:48:11.173Z,16.90
2022-12-11T06:50:39.588Z,16.57
2022-12-11T06:53:07.638Z,15.87
2022-12-11T06:55:36.385Z,16.97
2022-12-11T06:58:04.904Z,16.03
2022-12-11T07:00:36.288Z,17.07
2022-12-11T07:03:05.135Z,17.10
2022-12-11T07:05:33.727Z,17.30
2022-12-11T07:08:01.996Z,15.87
2022-12-11T07:10:30.168Z,17.03
2022-12-11T07:12:58.128Z,17.10
2022-12-11T07:15:26.201Z,16.27
2022-12-11T07:17:55.569Z,16.63
2022-12-11T07:20:23.906Z,16.13
2022-12-11T07:22:51.948Z,16.37
2022-12-11T07:25:19.932Z,16.40
2022-12-11T07:27:47.953Z,16.30
2022-12-11T07:30:16.018Z,16.97
2022-12-11T07:32:44.053Z,16.97
2022-12-11T07:35:13.684Z,17.13
2022-12-11T07:37:42.562Z,17.33
2022-12-11T07:40:11.997Z,16.50
2022-12-11T07:42:45.861Z,16.87
2022-12-11T07:45:14.681Z,16.90
2022-12-11T07:47:43.119Z,16.83
2022-12-11T07:50:11.625Z,16.13
2022-12-11T07:52:41.023Z,15.67
2022-12-11T07:55:09.990Z,18.20
2022-12-11T07:57:38.345Z,17.87
2022-12-11T08:00:07.775Z,17.57
2022-12-11T08:02:40.646Z,16.73
2022-12-11T08:05:10.056Z,17.83
2022-12-11T08:07:38.259Z,17.37
2022-12-11T08:10:09.352Z,17.17
2022-12-11T08:12:37.340Z,16.27
2022-12-11T08:15:06.128Z,18.00
2022-12-11T08:17:39.791Z,17.23
2022-12-11T08:20:09.513Z,15.20
2022-12-11T08:22:37.515Z,15.57
2022-12-11T08:25:06.375Z,14.67
2022-12-11T08:27:35.869Z,16.47
2022-12-11T08:30:04.166Z,15.60
2022-12-11T08:32:32.149Z,17.07
2022-12-11T08:35:00.172Z,15.47
2022-12-11T08:37:29.595Z,17.47
2022-12-11T08:39:57.640Z,15.13
2022-12-11T08:42:25.654Z,15.53
2022-12-11T08:44:55.036Z,15.93
2022-12-11T08:47:23.095Z,16.67
2022-12-11T08:49:51.107Z,15.67
2022-12-11T08:52:19.126Z,14.10
2022-12-11T08:54:47.133Z,15.00
2022-12-11T08:57:15.309Z,15.47
2022-12-11T08:59:43.340Z,15.33
2022-12-11T09:02:13.476Z,14.83
2022-12-11T09:04:41.759Z,17.07
2022-12-11T09:07:09.790Z,16.50
2022-12-11T09:09:37.916Z,14.40
2022-12-11T09:12:06.432Z,14.83
2022-12-11T09:14:35.447Z,16.23
2022-12-11T09:17:05.409Z,14.83
2022-12-11T09:19:34.879Z,14.40
2022-12-11T09:22:02.962Z,15.10
2022-12-11T09:24:31.036Z,14.27
2022-12-11T09:26:59.087Z,13.40
2022-12-11T09:29:27.125Z,14.87
2022-12-11T09:31:55.168Z,16.53
2022-12-11T09:34:28.920Z,15.77
2022-12-11T09:36:59.548Z,15.97
2022-12-11T09:39:27.621Z,14.77
2022-12-11T09:42:02.405Z,14.50
2022-12-11T09:44:39.098Z,15.77
2022-12-11T09:47:21.433Z,16.97
2022-12-11T09:49:53.832Z,15.13
2022-12-11T09:52:29.553Z,16.03
2022-12-11T09:55:00.303Z,15.90
2022-12-11T09:57:36.532Z,15.93
2022-12-11T10:00:16.010Z,15.73
2022-12-11T10:03:08.852Z,15.33
2022-12-11T10:05:42.084Z,18.17
2022-12-11T10:08:18.174Z,27.90
2022-12-11T10:10:54.238Z,17.20
2022-12-11T10:13:32.077Z,17.00
2022-12-11T10:16:05.044Z,19.93
2022-12-11T10:18:34.585Z,19.83
2022-12-11T10:21:04.430Z,22.27
2022-12-11T10:23:39.884Z,19.33
2022-12-11T10:26:12.324Z,16.73
2022-12-11T10:28:40.469Z,15.80
2022-12-11T10:31:17.210Z,16.97
2022-12-11T10:33:55.626Z,15.57
2022-12-11T10:36:29.324Z,17.57
2022-12-11T10:38:59.839Z,15.80
2022-12-11T10:41:39.019Z,15.63
2022-12-11T10:44:17.602Z,15.77
2022-12-11T10:46:46.449Z,17.00
2022-12-11T10:49:26.777Z,15.87
2022-12-11T10:51:56.233Z,15.27
2022-12-11T10:54:34.787Z,15.73
2022-12-11T10:57:04.303Z,15.67
2022-12-11T10:59:37.797Z,16.50
2022-12-11T11:02:08.040Z,14.90
2022-12-11T11:04:38.968Z,15.53
2022-12-11T11:07:15.443Z,15.80
2022-12-11T11:09:45.026Z,15.60
2022-12-11T11:12:26.265Z,15.67
2022-12-11T11:15:02.087Z,15.20
2022-12-11T11:17:34.953Z,15.37
2022-12-11T11:20:14.024Z,15.43
2022-12-11T11:22:45.258Z,15.07
2022-12-11T11:25:20.790Z,14.00
2022-12-11T11:27:54.545Z,15.00
2022-12-11T11:30:25.450Z,23.37
2022-12-11T11:32:56.425Z,31.63
2022-12-11T11:35:27.049Z,17.70
2022-12-11T11:38:01.589Z,16.97
2022-12-11T11:40:34.547Z,15.70
2022-12-11T11:43:11.149Z,24.00
2022-12-11T11:45:44.444Z,17.00
2022-12-11T11:48:23.865Z,15.63
2022-12-11T11:50:54.076Z,16.43
2022-12-11T11:53:28.762Z,16.30
2022-12-11T11:56:08.280Z,15.20
2022-12-11T11:58:42.877Z,15.23
2022-12-11T12:01:16.094Z,15.20
2022-12-11T12:03:44.690Z,15.20
2022-12-11T12:06:20.229Z,13.83
2022-12-11T12:08:59.175Z,16.57
2022-12-11T12:11:35.973Z,14.47
2022-12-11T12:14:43.718Z,14.77
2022-12-11T12:17:11.604Z,13.63
2022-12-11T12:19:48.013Z,15.30
2022-12-11T12:22:34.969Z,14.50
2022-12-11T12:25:15.668Z,14.40
2022-12-11T12:27:53.141Z,16.53
2022-12-11T12:30:23.441Z,14.80
2022-12-11T12:33:15.019Z,40.97
2022-12-11T12:35:51.396Z,19.00
2022-12-11T12:38:24.833Z,16.07
2022-12-11T12:41:02.109Z,15.97
2022-12-11T12:43:52.223Z,15.93
2022-12-11T12:46:30.356Z,17.77
2022-12-11T12:49:00.298Z,17.30
2022-12-11T12:51:29.503Z,26.27
2022-12-11T12:54:00.323Z,30.50
2022-12-11T12:56:30.237Z,17.30
2022-12-11T12:58:59.774Z,18.63
2022-12-11T13:01:30.239Z,17.60
2022-12-11T13:04:02.107Z,19.87
2022-12-11T13:06:35.944Z,17.57
2022-12-11T13:09:19.304Z,19.63
2022-12-11T13:11:50.145Z,17.43
2022-12-11T13:14:31.101Z,17.33
2022-12-11T13:17:27.687Z,15.10
2022-12-11T13:20:16.217Z,15.30
2022-12-11T13:22:54.428Z,15.87
2022-12-11T13:25:26.486Z,15.57
2022-12-11T13:28:05.215Z,15.90
2022-12-11T13:30:35.448Z,14.37
2022-12-11T13:33:06.742Z,17.30
2022-12-11T13:35:36.439Z,15.73
2022-12-11T13:38:09.197Z,15.80
2022-12-11T13:40:42.681Z,15.07
2022-12-11T13:43:19.409Z,14.20
2022-12-11T13:45:52.235Z,15.80
2022-12-11T13:48:26.041Z,15.67
2022-12-11T13:50:55.321Z,15.40
2022-12-11T13:53:24.045Z,14.73
2022-12-11T13:55:59.567Z,15.70
2022-12-11T13:58:28.964Z,15.80
2022-12-11T14:01:08.714Z,15.80
2022-12-11T14:03:37.061Z,18.20
2022-12-11T14:06:05.418Z,16.13
2022-12-11T14:08:37.268Z,19.90
2022-12-11T14:11:06.458Z,23.67
2022-12-11T14:13:37.260Z,56.10
2022-12-11T14:16:08.370Z,26.70
2022-12-11T14:18:38.141Z,43.50
2022-12-11T14:21:07.685Z,41.73
2022-12-11T14:23:37.481Z,23.13
2022-12-11T14:26:17.226Z,27.07
2022-12-11T14:28:45.788Z,21.30
2022-12-11T14:31:17.922Z,21.03
2022-12-11T14:33:49.947Z,17.83
2022-12-11T14:36:20.193Z,16.93
2022-12-11T14:38:53.566Z,18.87
2022-12-11T14:41:26.361Z,15.30
2022-12-11T14:43:58.006Z,21.43
2022-12-11T14:46:36.115Z,20.57
2022-12-11T14:49:13.013Z,26.73
2022-12-11T14:51:42.123Z,17.40
2022-12-11T14:54:20.502Z,20.70
2022-12-11T14:56:48.766Z,15.17
2022-12-11T14:59:27.019Z,15.57
2022-12-11T15:02:03.494Z,17.17
2022-12-11T15:04:34.482Z,17.90
2022-12-11T15:07:02.708Z,23.47
2022-12-11T15:09:40.658Z,17.57
2022-12-11T15:12:13.058Z,15.80
2022-12-11T15:14:48.679Z,16.30
2022-12-11T15:17:18.786Z,17.37
2022-12-11T15:19:51.159Z,19.37
2022-12-11T15:22:21.080Z,15.87
2022-12-11T15:24:52.678Z,14.90
2022-12-11T15:27:27.088Z,23.57
2022-12-11T15:29:55.221Z,23.00
2022-12-11T15:32:26.041Z,16.20
2022-12-11T15:34:55.986Z,15.50
2022-12-11T15:37:26.386Z,15.17
2022-12-11T15:39:55.692Z,16.80
2022-12-11T15:42:30.119Z,14.77
2022-12-11T15:44:59.064Z,15.13
2022-12-11T15:47:30.386Z,15.07
2022-12-11T15:50:00.619Z,14.77
2022-12-11T15:52:29.123Z,15.27
2022-12-11T15:54:57.103Z,13.63
2022-12-11T15:57:25.774Z,14.40
2022-12-11T15:59:56.318Z,14.70
2022-12-11T16:02:26.800Z,14.30
2022-12-11T16:04:58.811Z,14.03
2022-12-11T16:07:27.741Z,13.83
2022-12-11T16:09:55.863Z,13.83
2022-12-11T16:12:23.873Z,13.80
2022-12-11T16:14:52.086Z,14.20
2022-12-11T16:17:20.155Z,14.50
2022-12-11T16:19:48.225Z,14.13
2022-12-11T16:22:17.643Z,15.70
2022-12-11T16:24:45.725Z,17.20
2022-12-11T16:27:17.310Z,15.13
2022-12-11T16:29:48.297Z,16.27
2022-12-11T16:32:16.341Z,17.23
2022-12-11T16:34:44.512Z,20.73
2022-12-11T16:37:13.064Z,15.13
2022-12-11T16:39:44.813Z,21.70
2022-12-11T16:42:12.923Z,15.80
2022-12-11T16:44:43.942Z,19.20
2022-12-11T16:47:12.377Z,20.17
2022-12-11T16:49:40.807Z,18.33
2022-12-11T16:52:09.015Z,16.60
2022-12-11T16:54:37.221Z,19.37
2022-12-11T16:57:06.665Z,18.80
2022-12-11T16:59:37.484Z,16.47
2022-12-11T17:02:06.441Z,17.10
2022-12-11T17:04:34.568Z,16.13
2022-12-11T17:07:02.533Z,18.13
2022-12-11T17:09:30.582Z,17.53
2022-12-11T17:11:58.746Z,16.67
2022-12-11T17:14:28.643Z,21.73
2022-12-11T17:16:56.841Z,22.10
2022-12-11T17:19:24.986Z,16.37
2022-12-11T17:21:54.154Z,17.27
2022-12-11T17:24:22.376Z,16.23
2022-12-11T17:26:50.477Z,14.90
2022-12-11T17:29:18.634Z,15.67
2022-12-11T17:31:48.519Z,17.57
2022-12-11T17:34:17.019Z,18.83
2022-12-11T17:36:46.519Z,18.83
2022-12-11T17:39:14.520Z,16.37
2022-12-11T17:41:42.580Z,20.17
2022-12-11T17:44:11.324Z,20.60
2022-12-11T17:46:39.359Z,19.40
2022-12-11T17:49:08.753Z,17.43
2022-12-11T17:51:38.137Z,15.47
2022-12-11T17:54:06.214Z,15.93
2022-12-11T17:56:36.106Z,15.67
2022-12-11T17:59:04.683Z,16.20
2022-12-11T18:01:32.994Z,17.23
2022-12-11T18:04:01.814Z,15.73
2022-12-11T18:06:31.976Z,16.83
2022-12-11T18:09:00.025Z,16.47
2022-12-11T18:11:28.117Z,17.73
2022-12-11T18:13:56.144Z,16.83
2022-12-11T18:16:26.734Z,15.57
2022-12-11T18:18:56.431Z,16.80
2022-12-11T18:21:27.241Z,37.00
2022-12-11T18:23:57.430Z,39.33
2022-12-11T18:26:25.902Z,39.73
2022-12-11T18:28:54.273Z,81.30
2022-12-11T18:31:24.015Z,41.10
2022-12-11T18:33:52.837Z,44.17
2022-12-11T18:36:21.744Z,25.40
2022-12-11T18:38:49.992Z,31.23
2022-12-11T18:41:23.012Z,22.90
2022-12-11T18:43:51.062Z,18.77
2022-12-11T18:46:21.087Z,20.50
2022-12-11T18:48:50.605Z,24.83
2022-12-11T18:51:22.569Z,26.03
2022-12-11T18:53:51.126Z,51.43
2022-12-11T18:56:21.639Z,33.20
2022-12-11T18:58:51.672Z,34.90
2022-12-11T19:01:22.104Z,25.30
2022-12-11T19:03:51.488Z,28.20
2022-12-11T19:06:21.556Z,38.80
2022-12-11T19:08:49.615Z,26.53
2022-12-11T19:11:18.862Z,74.13
2022-12-11T19:13:48.645Z,36.67
2022-12-11T19:16:18.832Z,35.97
2022-12-11T19:18:47.458Z,32.17
2022-12-11T19:21:17.513Z,26.00
2022-12-11T19:23:46.935Z,23.00
2022-12-11T19:26:16.672Z,22.33
2022-12-11T19:28:45.613Z,20.37
2022-12-11T19:31:17.374Z,18.17
2022-12-11T19:33:46.758Z,18.03
2022-12-11T19:36:16.770Z,25.57
2022-12-11T19:38:46.356Z,19.83
2022-12-11T19:41:17.816Z,21.37
2022-12-11T19:43:46.046Z,18.03
2022-12-11T19:46:16.612Z,18.00
2022-12-11T19:48:45.794Z,19.47
2022-12-11T19:51:17.009Z,21.50
2022-12-11T19:53:45.984Z,19.50
2022-12-11T19:56:14.344Z,17.43
2022-12-11T19:58:43.212Z,17.33
2022-12-11T20:01:18.431Z,17.30
2022-12-11T20:03:48.149Z,17.53
2022-12-11T20:06:16.337Z,17.47
2022-12-11T20:08:45.905Z,16.87
2022-12-11T20:11:18.359Z,17.07
2022-12-11T20:13:47.344Z,16.07
2022-12-11T20:16:16.580Z,16.83
2022-12-11T20:18:44.963Z,17.90
2022-12-11T20:21:16.599Z,16.93
2022-12-11T20:23:45.802Z,15.97
2022-12-11T20:26:16.437Z,18.10
2022-12-11T20:28:44.954Z,18.67
2022-12-11T20:31:20.040Z,18.13
2022-12-11T20:33:49.241Z,16.97
2022-12-11T20:36:20.808Z,18.03
2022-12-11T20:38:48.898Z,18.27
2022-12-11T20:41:18.975Z,17.60
2022-12-11T20:43:49.008Z,17.90
2022-12-11T20:46:18.590Z,21.17
2022-12-11T20:48:47.173Z,59.67
2022-12-11T20:51:20.965Z,44.57
2022-12-11T20:53:58.655Z,50.73
2022-12-11T20:56:29.473Z,29.43
2022-12-11T20:58:58.450Z,39.97
2022-12-11T21:01:29.487Z,88.50
2022-12-11T21:03:58.028Z,43.67
2022-12-11T21:06:31.233Z,38.33
2022-12-11T21:09:02.349Z,49.70
2022-12-11T21:11:30.556Z,24.60
2022-12-11T21:13:58.604Z,35.97
2022-12-11T21:16:26.810Z,33.67
2022-12-11T21:18:56.024Z,63.67
2022-12-11T21:21:24.429Z,59.83
2022-12-11T21:23:52.789Z,61.67
2022-12-11T21:26:22.356Z,35.00
2022-12-11T21:28:50.538Z,22.40
2022-12-11T21:31:19.829Z,25.17
2022-12-11T21:33:48.452Z,22.73
2022-12-11T21:36:17.397Z,30.30
2022-12-11T21:38:46.472Z,25.77
2022-12-11T21:41:17.021Z,22.63
2022-12-11T21:44:40.939Z,19.77
2022-12-11T21:46:35.894Z,22.80
2022-12-11T21:49:04.101Z,20.63
2022-12-11T21:51:37.215Z,21.10
2022-12-11T21:54:10.252Z,20.73
2022-12-11T21:56:38.428Z,24.87
2022-12-11T21:59:07.820Z,20.23
2022-12-11T22:01:38.518Z,21.77
2022-12-11T22:04:06.887Z,25.37
2022-12-11T22:06:35.621Z,33.17
2022-12-11T22:09:04.613Z,24.27
2022-12-11T22:11:34.489Z,23.17
2022-12-11T22:14:03.257Z,19.77
2022-12-11T22:16:32.737Z,18.90
2022-12-11T22:19:01.297Z,20.10
2022-12-11T22:21:29.934Z,19.73
2022-12-11T22:23:57.989Z,19.53
2022-12-11T22:26:28.487Z,20.40
2022-12-11T22:28:57.915Z,20.43
2022-12-11T22:31:28.010Z,19.83
2022-12-11T22:33:57.712Z,19.20
2022-12-11T22:36:27.239Z,20.43
2022-12-11T22:38:55.483Z,19.40
2022-12-11T22:41:26.517Z,20.70
2022-12-11T22:43:55.501Z,19.43
2022-12-11T22:46:25.840Z,19.97
2022-12-11T22:48:54.598Z,19.40
2022-12-11T22:51:24.219Z,19.70
2022-12-11T22:53:52.221Z,19.97
2022-12-11T22:56:20.435Z,19.50
2022-12-11T22:58:48.482Z,19.37
2022-12-11T23:01:20.083Z,21.10
2022-12-11T23:03:48.252Z,20.57
2022-12-11T23:06:18.978Z,20.30
2022-12-11T23:08:48.692Z,20.87
2022-12-11T23:11:21.339Z,19.87
2022-12-11T23:13:49.427Z,20.17
2022-12-11T23:16:17.897Z,20.67
2022-12-11T23:18:46.012Z,21.33
2022-12-11T23:21:15.275Z,20.13
2022-12-11T23:23:43.369Z,20.83
2022-12-11T23:26:15.150Z,20.17
2022-12-11T23:28:43.513Z,20.57
2022-12-11T23:31:12.445Z,19.40
2022-12-11T23:33:40.611Z,19.97
2022-12-11T23:36:09.764Z,19.17
2022-12-11T23:38:37.878Z,21.13
2022-12-11T23:41:06.818Z,20.70
2022-12-11T23:43:38.181Z,20.30
2022-12-11T23:46:09.529Z,20.77
2022-12-11T23:48:37.628Z,20.97
2022-12-11T23:51:06.478Z,20.93
2022-12-11T23:53:34.873Z,21.53
2022-12-11T23:56:05.014Z,20.30
2022-12-11T23:58:33.281Z,21.27
